Time;durP1;ratioP1;P1;durP2;ratioP2;P2;SDS_P1;SDS_P2;PMS_P1;PMS_P2;Temp;Humidity;BMP_temperature;BMP_pressure;BME280_temperature;BME280_humidity;BME280_pressure;Samples;Min_cycle;Max_cycle;Signal;HPM_P1;HPM_P2
2021/07/03 00:02:26;;;;;;;2.25;1.17;;;25.90;30.50;;;;;;20546906;28;80691;-71
2021/07/03 00:12:28;;;;;;;2.83;1.05;;;25.90;30.60;;;;;;20527941;28;80921;-71
2021/07/03 00:22:30;;;;;;;2.47;1.63;;;25.90;30.50;;;;;;20525234;28;80348;-70
2021/07/03 00:32:31;;;;;;;2.45;1.33;;;25.80;30.70;;;;;;20528597;28;80917;-70
2021/07/03 00:42:34;;;;;;;3.70;1.42;;;25.70;30.80;;;;;;20544748;28;80678;-71
2021/07/03 00:52:37;;;;;;;4.63;1.33;;;25.50;31.60;;;;;;20540861;28;80847;-70
2021/07/03 01:02:39;;;;;;;6.78;1.55;;;25.40;31.70;;;;;;20539096;28;80689;-71
2021/07/03 01:12:41;;;;;;;2.33;1.10;;;25.50;32.20;;;;;;20528054;28;80684;-70
2021/07/03 01:22:46;;;;;;;2.83;1.10;;;25.30;32.90;;;;;;20538523;28;81593;-71
2021/07/03 01:32:49;;;;;;;2.60;1.10;;;25.10;33.30;;;;;;20540783;28;80410;-71
2021/07/03 01:42:57;;;;;;;3.83;2.05;;;25.10;33.70;;;;;;20557512;28;80781;-71
2021/07/03 01:53:07;;;;;;;3.28;1.73;;;25.00;34.10;;;;;;20547206;28;81180;-72
2021/07/03 02:03:09;;;;;;;4.88;1.48;;;24.80;34.60;;;;;;20555779;28;80418;-72
2021/07/03 02:13:12;;;;;;;3.28;1.77;;;24.60;35.10;;;;;;20521168;28;81764;-71
2021/07/03 02:23:16;;;;;;;3.15;1.70;;;24.40;36.00;;;;;;20554761;28;81149;-71
2021/07/03 02:33:19;;;;;;;7.90;2.38;;;24.20;36.90;;;;;;20537005;28;80655;-71
2021/07/03 02:43:21;;;;;;;3.90;2.17;;;24.00;37.80;;;;;;20550521;28;80854;-71
2021/07/03 02:53:23;;;;;;;2.47;1.55;;;23.90;38.50;;;;;;20555101;28;80682;-71
2021/07/03 03:03:30;;;;;;;3.95;1.60;;;23.70;38.00;;;;;;20552874;28;82419;-71
2021/07/03 03:13:38;;;;;;;3.05;1.80;;;23.60;38.20;;;;;;20543557;28;81081;-71
2021/07/03 03:23:45;;;;;;;7.47;1.67;;;23.40;38.70;;;;;;20542705;28;80470;-71
2021/07/03 03:33:49;;;;;;;3.05;1.42;;;23.40;37.80;;;;;;20545397;28;81040;-71
2021/07/03 03:43:58;;;;;;;3.50;1.40;;;23.70;37.80;;;;;;20546615;28;80699;-70
2021/07/03 03:54:01;;;;;;;3.97;1.42;;;23.80;36.90;;;;;;20543854;28;81381;-71
2021/07/03 04:04:05;;;;;;;3.30;0.98;;;23.70;37.60;;;;;;20530812;28;81987;-70
2021/07/03 04:14:14;;;;;;;3.15;1.40;;;23.40;38.90;;;;;;20546101;28;80972;-70
2021/07/03 04:24:25;;;;;;;3.90;1.50;;;23.30;39.80;;;;;;20544883;28;80617;-70
2021/07/03 04:34:42;;;;;;;4.75;1.42;;;23.00;41.50;;;;;;20545076;28;81691;-70
2021/07/03 04:45:04;;;;;;;;;;;22.90;41.10;;;;;;20538888;28;80124;-70
2021/07/03 04:55:25;;;;;;;5.13;1.20;;;22.70;41.20;;;;;;20515527;28;80378;-71
2021/07/03 05:05:30;;;;;;;4.22;1.33;;;22.60;41.30;;;;;;20537816;28;80143;-71
2021/07/03 05:15:33;;;;;;;8.52;1.70;;;22.60;41.70;;;;;;20558019;28;81761;-71
2021/07/03 05:25:35;;;;;;;3.42;1.20;;;22.60;42.00;;;;;;20558326;28;82036;-71
2021/07/03 05:35:37;;;;;;;3.58;1.33;;;22.80;41.60;;;;;;20552634;28;82420;-70
2021/07/03 05:45:40;;;;;;;3.58;1.33;;;22.80;42.10;;;;;;20532930;28;80549;-71
2021/07/03 05:55:42;;;;;;;5.65;1.40;;;22.80;43.10;;;;;;20553386;28;82106;-70
2021/07/03 06:05:45;;;;;;;2.95;1.10;;;22.90;43.40;;;;;;20521288;28;80731;-70
2021/07/03 06:15:48;;;;;;;3.15;1.42;;;22.90;44.70;;;;;;20546068;28;80879;-70
2021/07/03 06:25:51;;;;;;;6.28;1.30;;;23.10;44.70;;;;;;20546680;28;81676;-70
2021/07/03 06:35:53;;;;;;;6.60;1.83;;;23.40;44.20;;;;;;20546680;28;80836;-69
2021/07/03 06:45:55;;;;;;;5.43;1.30;;;23.60;43.60;;;;;;20543630;28;82811;-70
2021/07/03 06:55:57;;;;;;;2.05;1.20;;;23.80;43.70;;;;;;20545164;28;80221;-69
2021/07/03 07:05:59;;;;;;;6.53;1.48;;;24.00;42.70;;;;;;20540244;28;80398;-69
2021/07/03 07:16:02;;;;;;;1.92;1.10;;;24.20;42.00;;;;;;20549081;28;80809;-69
2021/07/03 07:26:04;;;;;;;5.50;2.20;;;24.50;40.20;;;;;;20547017;28;80324;-74
2021/07/03 07:36:08;;;;;;;3.75;1.48;;;24.60;40.20;;;;;;20544058;28;81448;-71
2021/07/03 07:46:11;;;;;;;7.78;1.70;;;24.80;40.20;;;;;;20542508;28;81879;-70
2021/07/03 07:56:17;;;;;;;5.90;1.63;;;24.90;40.30;;;;;;20545695;28;81516;-70
2021/07/03 08:06:19;;;;;;;5.35;2.00;;;25.20;39.20;;;;;;20547011;28;81092;-72
2021/07/03 08:16:21;;;;;;;3.95;1.50;;;25.50;37.90;;;;;;20541855;28;81411;-71
2021/07/03 08:26:23;;;;;;;2.28;1.48;;;26.00;36.80;;;;;;20544126;28;81356;-70
2021/07/03 08:36:26;;;;;;;3.83;1.83;;;26.30;36.80;;;;;;20544546;28;81327;-72
2021/07/03 08:46:28;;;;;;;2.80;1.08;;;26.40;35.60;;;;;;20545259;28;80034;-69
2021/07/03 08:56:30;;;;;;;5.53;1.55;;;26.30;35.70;;;;;;20542304;28;80204;-68
2021/07/03 09:06:33;;;;;;;3.92;1.30;;;26.40;35.60;;;;;;20539325;28;80790;-70
2021/07/03 09:16:37;;;;;;;5.78;1.75;;;26.40;35.70;;;;;;20536706;28;80679;-68
2021/07/03 09:26:39;;;;;;;6.90;3.00;;;26.50;35.00;;;;;;20498126;28;80690;-68
2021/07/03 09:36:47;;;;;;;6.78;2.75;;;26.90;35.70;;;;;;20494005;28;81034;-68
2021/07/03 09:46:53;;;;;;;4.50;2.05;;;27.40;35.00;;;;;;20501667;28;81744;-68
2021/07/03 09:57:00;;;;;;;7.93;2.53;;;27.80;34.20;;;;;;20507198;28;81282;-68
2021/07/03 10:07:20;;;;;;;12.85;3.67;;;28.50;33.90;;;;;;20488270;28;81466;-67
2021/07/03 10:17:24;;;;;;;10.40;4.40;;;28.90;34.00;;;;;;20474047;28;81648;-68
2021/07/03 10:27:31;;;;;;;5.30;1.88;;;29.30;33.50;;;;;;20501887;28;80677;-67
2021/07/03 10:37:33;;;;;;;2.72;1.40;;;29.40;32.90;;;;;;20478169;28;80834;-69
2021/07/03 10:47:35;;;;;;;5.68;2.60;;;29.70;31.20;;;;;;20495874;28;81150;-68
2021/07/03 10:57:44;;;;;;;4.03;1.90;;;30.50;31.40;;;;;;20550028;28;82376;-68
2021/07/03 11:07:46;;;;;;;4.20;1.83;;;34.40;27.10;;;;;;20544883;28;80078;-69
2021/07/03 11:17:49;;;;;;;3.78;1.98;;;37.60;23.70;;;;;;20533060;28;81274;-68
2021/07/03 11:27:50;;;;;;;4.50;2.75;;;36.40;24.80;;;;;;20533353;28;81496;-68
2021/07/03 11:37:52;;;;;;;2.28;1.40;;;36.90;24.30;;;;;;20516710;28;81322;-70
2021/07/03 11:48:03;;;;;;;5.07;3.17;;;37.20;22.60;;;;;;20511192;28;81205;-70
2021/07/03 11:58:09;;;;;;;3.47;2.20;;;39.30;21.40;;;;;;20545210;28;81245;-70
2021/07/03 12:08:13;;;;;;;2.88;2.05;;;41.90;19.10;;;;;;20537929;28;80706;-71
2021/07/03 12:18:32;;;;;;;4.82;3.40;;;43.30;18.20;;;;;;20535977;28;81636;-69
2021/07/03 12:28:57;;;;;;;3.33;1.67;;;44.00;17.70;;;;;;20494523;28;80985;-69
2021/07/03 12:39:08;;;;;;;4.47;2.10;;;44.50;17.60;;;;;;20533126;28;81760;-71
2021/07/03 12:49:10;;;;;;;3.15;1.58;;;43.40;18.20;;;;;;20539575;28;82472;-69
2021/07/03 12:59:12;;;;;;;2.38;1.50;;;45.10;17.40;;;;;;20530449;28;80841;-70
2021/07/03 13:09:14;;;;;;;1.95;1.52;;;45.50;17.40;;;;;;20527478;28;81325;-72
2021/07/03 13:19:16;;;;;;;2.13;1.50;;;46.40;17.00;;;;;;20544581;28;81019;-71
2021/07/03 13:29:18;;;;;;;1.80;1.40;;;45.50;17.50;;;;;;20514120;28;81091;-69
2021/07/03 13:39:19;;;;;;;2.58;1.40;;;45.30;17.80;;;;;;20545705;28;82990;-71
2021/07/03 13:49:21;;;;;;;1.92;0.77;;;41.70;19.90;;;;;;20551190;28;82111;-70
2021/07/03 13:59:24;;;;;;;1.33;0.90;;;38.10;23.20;;;;;;20549188;28;80923;-72
2021/07/03 14:09:25;;;;;;;5.30;2.00;;;36.10;24.80;;;;;;20542782;28;80802;-72
2021/07/03 14:19:28;;;;;;;4.03;1.17;;;35.00;25.70;;;;;;20550368;28;80754;-73
2021/07/03 14:29:30;;;;;;;4.70;0.90;;;34.60;26.30;;;;;;20514565;28;80774;-71
2021/07/03 14:39:33;;;;;;;4.10;1.20;;;34.30;26.50;;;;;;20536258;28;81500;-71
2021/07/03 14:49:35;;;;;;;1.90;0.80;;;33.70;26.80;;;;;;20547996;28;81811;-71
2021/07/03 14:59:37;;;;;;;3.00;0.75;;;33.50;27.00;;;;;;20534711;28;81829;-71
2021/07/03 15:09:38;;;;;;;4.70;1.88;;;33.40;27.30;;;;;;20535657;28;81149;-72
2021/07/03 15:19:40;;;;;;;5.72;2.50;;;33.20;27.40;;;;;;20532196;28;81406;-72
2021/07/03 15:29:42;;;;;;;2.50;1.48;;;32.90;27.40;;;;;;20535132;28;80246;-72
2021/07/03 15:39:44;;;;;;;8.20;2.85;;;32.80;27.70;;;;;;20531021;28;80694;-72
2021/07/03 15:49:46;;;;;;;6.28;3.00;;;32.70;28.00;;;;;;20536735;28;81268;-72
2021/07/03 15:59:48;;;;;;;6.93;2.28;;;31.70;29.80;;;;;;20536748;28;80743;-71
2021/07/03 16:09:50;;;;;;;10.98;4.03;;;31.80;29.70;;;;;;20530401;28;81436;-69
2021/07/03 16:19:52;;;;;;;19.73;4.68;;;31.90;30.10;;;;;;20535551;28;80445;-71
2021/07/03 16:29:54;;;;;;;34.20;5.95;;;31.00;33.40;;;;;;20534568;28;80981;-69
2021/07/03 16:39:57;;;;;;;48.15;7.75;;;30.50;35.50;;;;;;20541816;28;81229;-67
2021/07/03 16:49:58;;;;;;;41.38;7.55;;;30.10;38.00;;;;;;20519565;28;80756;-67
2021/07/03 17:00:00;;;;;;;8.43;2.40;;;30.10;36.50;;;;;;20539361;28;80853;-67
2021/07/03 17:10:04;;;;;;;12.55;1.70;;;30.70;33.70;;;;;;20534235;28;81112;-68
2021/07/03 17:20:07;;;;;;;8.65;2.55;;;30.50;33.10;;;;;;20536321;28;80657;-68
2021/07/03 17:30:11;;;;;;;5.13;2.00;;;30.80;32.70;;;;;;20534099;28;80233;-67
2021/07/03 17:40:13;;;;;;;5.63;2.08;;;31.10;32.10;;;;;;20530947;28;81433;-67
2021/07/03 17:50:16;;;;;;;2.60;2.00;;;30.70;32.60;;;;;;20532589;28;81762;-67
2021/07/03 18:00:17;;;;;;;6.32;1.15;;;30.40;32.80;;;;;;20532112;28;81190;-66
2021/07/03 18:10:19;;;;;;;3.25;0.90;;;30.20;33.50;;;;;;20533044;28;80372;-68
2021/07/03 18:20:21;;;;;;;4.20;0.82;;;30.00;34.00;;;;;;20541626;28;81026;-68
2021/07/03 18:30:22;;;;;;;7.57;1.20;;;29.90;34.00;;;;;;20548195;28;80495;-69
2021/07/03 18:40:24;;;;;;;10.68;1.20;;;29.90;34.40;;;;;;20539596;28;80227;-68
2021/07/03 18:50:26;;;;;;;10.00;2.60;;;29.80;35.10;;;;;;20546827;28;81322;-68
2021/07/03 19:00:31;;;;;;;2.75;1.40;;;29.60;35.50;;;;;;20542924;28;80737;-67
2021/07/03 19:10:32;;;;;;;4.57;0.60;;;29.40;35.40;;;;;;20539085;28;80750;-67
2021/07/03 19:20:34;;;;;;;3.80;0.82;;;29.30;35.50;;;;;;20529301;28;81564;-66
2021/07/03 19:30:37;;;;;;;1.67;0.60;;;29.20;35.80;;;;;;20543040;28;80978;-67
2021/07/03 19:40:39;;;;;;;1.55;0.43;;;29.00;36.00;;;;;;20543464;28;80757;-67
2021/07/03 19:50:41;;;;;;;21.15;5.97;;;28.90;36.60;;;;;;20543310;28;80130;-67
2021/07/03 20:00:42;;;;;;;7.93;2.05;;;28.00;40.60;;;;;;20522854;28;80748;-67
2021/07/03 20:10:44;;;;;;;11.75;7.80;;;28.20;39.30;;;;;;20535570;28;80973;-68
2021/07/03 20:20:46;;;;;;;24.58;15.70;;;28.30;38.80;;;;;;20531853;28;81021;-69
2021/07/03 20:30:47;;;;;;;4.32;1.48;;;28.20;38.90;;;;;;20528254;28;82816;-68
2021/07/03 20:40:50;;;;;;;4.13;2.53;;;28.20;39.30;;;;;;20532171;28;83146;-68
2021/07/03 20:50:54;;;;;;;9.68;1.75;;;28.10;39.50;;;;;;20537641;28;80669;-67
2021/07/03 21:00:56;;;;;;;4.22;0.60;;;28.00;39.10;;;;;;20540563;28;80713;-69
2021/07/03 21:10:58;;;;;;;7.85;0.70;;;27.90;38.60;;;;;;20528308;28;80870;-72
2021/07/03 21:20:59;;;;;;;4.05;0.90;;;27.80;39.40;;;;;;20536003;28;81152;-72
2021/07/03 21:31:00;;;;;;;0.98;0.50;;;27.70;38.90;;;;;;20533375;28;80871;-71
2021/07/03 21:41:03;;;;;;;37.15;28.35;;;27.60;38.40;;;;;;20533836;28;80658;-68
2021/07/03 21:51:07;;;;;;;1.98;0.85;;;27.50;38.70;;;;;;20517024;28;83059;-68
2021/07/03 22:01:09;;;;;;;5.88;0.52;;;27.50;38.60;;;;;;20538564;28;83370;-68
2021/07/03 22:11:10;;;;;;;0.85;0.30;;;27.40;38.90;;;;;;20534056;28;80886;-69
2021/07/03 22:21:15;;;;;;;0.73;0.20;;;27.30;39.00;;;;;;20537411;28;82802;-70
2021/07/03 22:31:17;;;;;;;1.83;0.32;;;27.10;39.70;;;;;;20539252;28;80020;-71
2021/07/03 22:41:19;;;;;;;1.48;0.40;;;27.00;39.90;;;;;;20533052;28;81980;-70
2021/07/03 22:51:22;;;;;;;1.08;0.45;;;26.90;40.50;;;;;;20538102;28;81283;-71
2021/07/03 23:01:24;;;;;;;0.98;0.47;;;26.70;41.10;;;;;;20538403;28;80888;-71
2021/07/03 23:11:26;;;;;;;2.60;0.50;;;26.60;41.40;;;;;;20552597;28;80304;-68
2021/07/03 23:21:28;;;;;;;1.23;0.40;;;26.50;41.80;;;;;;20541639;28;80654;-68
2021/07/03 23:31:30;;;;;;;1.48;0.60;;;26.40;41.80;;;;;;20544426;28;81539;-68
2021/07/03 23:41:32;;;;;;;5.38;0.60;;;26.30;42.10;;;;;;20546004;28;80991;-68
2021/07/03 23:51:34;;;;;;;4.53;0.98;;;26.20;42.20;;;;;;20538915;28;79957;-68
